sensor_id;sensor_type;location;lat;lon;timestamp;pressure;altitude;pressure_sealevel;temperature;humidity
20111;BME280;10216;42.658;23.248;2023-08-17T00:01:54;93792.28;;;21.58;nan
20111;BME280;10216;42.658;23.248;2023-08-17T00:04:20;93791.03;;;21.49;nan
20111;BME280;10216;42.658;23.248;2023-08-17T00:06:45;93798.84;;;21.49;nan
20111;BME280;10216;42.658;23.248;2023-08-17T00:09:12;93793.06;;;21.35;nan
20111;BME280;10216;42.658;23.248;2023-08-17T00:11:38;93799.09;;;21.36;nan
20111;BME280;10216;42.658;23.248;2023-08-17T00:14:04;93793.66;;;21.37;nan
20111;BME280;10216;42.658;23.248;2023-08-17T00:16:29;93799.78;;;21.31;nan
20111;BME280;10216;42.658;23.248;2023-08-17T00:18:55;93800.22;;;21.28;nan
20111;BME280;10216;42.658;23.248;2023-08-17T00:21:20;93795.13;;;21.22;nan
20111;BME280;10216;42.658;23.248;2023-08-17T00:23:45;93803.53;;;21.24;nan
20111;BME280;10216;42.658;23.248;2023-08-17T00:26:11;93805.78;;;21.20;nan
20111;BME280;10216;42.658;23.248;2023-08-17T00:28:37;93796.44;;;21.13;nan
20111;BME280;10216;42.658;23.248;2023-08-17T00:31:02;93806.63;;;20.79;nan
20111;BME280;10216;42.658;23.248;2023-08-17T00:33:28;93795.75;;;20.94;nan
20111;BME280;10216;42.658;23.248;2023-08-17T00:35:53;93789.03;;;20.86;nan
20111;BME280;10216;42.658;23.248;2023-08-17T00:38:19;93804.69;;;20.86;nan
20111;BME280;10216;42.658;23.248;2023-08-17T00:40:44;93793.47;;;20.86;nan
20111;BME280;10216;42.658;23.248;2023-08-17T00:43:10;93791.06;;;20.84;nan
20111;BME280;10216;42.658;23.248;2023-08-17T00:45:35;93797.19;;;20.78;nan
20111;BME280;10216;42.658;23.248;2023-08-17T00:48:01;93795.03;;;20.75;nan
20111;BME280;10216;42.658;23.248;2023-08-17T00:50:28;93797.72;;;20.69;nan
20111;BME280;10216;42.658;23.248;2023-08-17T00:52:55;93791.91;;;20.55;nan
20111;BME280;10216;42.658;23.248;2023-08-17T00:55:21;93799.09;;;20.59;nan
20111;BME280;10216;42.658;23.248;2023-08-17T00:57:47;93790.78;;;20.51;nan
20111;BME280;10216;42.658;23.248;2023-08-17T01:00:13;93795.50;;;20.42;nan
20111;BME280;10216;42.658;23.248;2023-08-17T01:02:42;93794.00;;;20.35;nan
20111;BME280;10216;42.658;23.248;2023-08-17T01:05:08;93793.63;;;20.31;nan
20111;BME280;10216;42.658;23.248;2023-08-17T01:07:34;93795.16;;;20.20;nan
20111;BME280;10216;42.658;23.248;2023-08-17T01:10:01;93789.91;;;20.09;nan
20111;BME280;10216;42.658;23.248;2023-08-17T01:12:31;93787.03;;;19.99;nan
20111;BME280;10216;42.658;23.248;2023-08-17T01:17:43;93786.09;;;19.93;nan
20111;BME280;10216;42.658;23.248;2023-08-17T01:20:10;93787.78;;;19.87;nan
20111;BME280;10216;42.658;23.248;2023-08-17T01:22:41;93781.16;;;19.67;nan
20111;BME280;10216;42.658;23.248;2023-08-17T01:25:08;93785.16;;;19.69;nan
20111;BME280;10216;42.658;23.248;2023-08-17T01:27:40;93783.78;;;19.67;nan
20111;BME280;10216;42.658;23.248;2023-08-17T01:30:07;93780.91;;;19.57;nan
20111;BME280;10216;42.658;23.248;2023-08-17T01:32:48;93780.78;;;19.45;nan
20111;BME280;10216;42.658;23.248;2023-08-17T01:38:12;93777.50;;;19.31;nan
20111;BME280;10216;42.658;23.248;2023-08-17T01:40:37;93772.59;;;19.23;nan
20111;BME280;10216;42.658;23.248;2023-08-17T01:43:03;93782.50;;;19.15;nan
20111;BME280;10216;42.658;23.248;2023-08-17T01:45:29;93777.63;;;19.18;nan
20111;BME280;10216;42.658;23.248;2023-08-17T01:47:55;93772.13;;;19.08;nan
20111;BME280;10216;42.658;23.248;2023-08-17T01:50:20;93785.56;;;19.05;nan
20111;BME280;10216;42.658;23.248;2023-08-17T01:52:46;93778.22;;;18.95;nan
20111;BME280;10216;42.658;23.248;2023-08-17T01:55:11;93777.88;;;18.92;nan
20111;BME280;10216;42.658;23.248;2023-08-17T01:57:37;93772.81;;;18.97;nan
20111;BME280;10216;42.658;23.248;2023-08-17T02:00:22;93785.03;;;18.96;nan
20111;BME280;10216;42.658;23.248;2023-08-17T02:02:47;93773.31;;;18.62;nan
20111;BME280;10216;42.658;23.248;2023-08-17T02:05:13;93780.00;;;18.77;nan
20111;BME280;10216;42.658;23.248;2023-08-17T02:07:38;93772.84;;;18.72;nan
20111;BME280;10216;42.658;23.248;2023-08-17T02:10:04;93776.00;;;18.74;nan
20111;BME280;10216;42.658;23.248;2023-08-17T02:12:29;93780.06;;;18.70;nan
20111;BME280;10216;42.658;23.248;2023-08-17T02:14:55;93783.31;;;18.59;nan
20111;BME280;10216;42.658;23.248;2023-08-17T02:17:20;93775.53;;;18.52;nan
20111;BME280;10216;42.658;23.248;2023-08-17T02:19:47;93779.53;;;18.55;nan
20111;BME280;10216;42.658;23.248;2023-08-17T02:22:13;93784.19;;;18.46;nan
20111;BME280;10216;42.658;23.248;2023-08-17T02:24:39;93774.56;;;18.47;nan
20111;BME280;10216;42.658;23.248;2023-08-17T02:27:04;93774.06;;;18.31;nan
20111;BME280;10216;42.658;23.248;2023-08-17T02:29:29;93775.41;;;18.41;nan
20111;BME280;10216;42.658;23.248;2023-08-17T02:31:55;93777.41;;;18.39;nan
20111;BME280;10216;42.658;23.248;2023-08-17T02:34:20;93773.06;;;18.32;nan
20111;BME280;10216;42.658;23.248;2023-08-17T02:36:46;93771.41;;;18.38;nan
20111;BME280;10216;42.658;23.248;2023-08-17T02:39:11;93780.25;;;18.30;nan
20111;BME280;10216;42.658;23.248;2023-08-17T02:41:36;93781.31;;;18.29;nan
20111;BME280;10216;42.658;23.248;2023-08-17T02:44:03;93780.66;;;18.34;nan
20111;BME280;10216;42.658;23.248;2023-08-17T02:46:29;93781.50;;;18.28;nan
20111;BME280;10216;42.658;23.248;2023-08-17T02:48:54;93776.50;;;18.26;nan
20111;BME280;10216;42.658;23.248;2023-08-17T02:51:19;93774.94;;;18.19;nan
20111;BME280;10216;42.658;23.248;2023-08-17T02:53:45;93775.16;;;18.17;nan
20111;BME280;10216;42.658;23.248;2023-08-17T02:56:10;93781.56;;;18.15;nan
20111;BME280;10216;42.658;23.248;2023-08-17T02:58:38;93773.03;;;18.08;nan
20111;BME280;10216;42.658;23.248;2023-08-17T03:01:09;93768.63;;;18.02;nan
20111;BME280;10216;42.658;23.248;2023-08-17T03:03:35;93765.66;;;17.98;nan
20111;BME280;10216;42.658;23.248;2023-08-17T03:06:01;93775.25;;;17.98;nan
20111;BME280;10216;42.658;23.248;2023-08-17T03:08:27;93780.06;;;17.94;nan
20111;BME280;10216;42.658;23.248;2023-08-17T03:10:52;93772.13;;;17.82;nan
20111;BME280;10216;42.658;23.248;2023-08-17T03:13:18;93777.53;;;17.81;nan
20111;BME280;10216;42.658;23.248;2023-08-17T03:15:43;93782.91;;;17.86;nan
20111;BME280;10216;42.658;23.248;2023-08-17T03:18:08;93780.31;;;17.79;nan
20111;BME280;10216;42.658;23.248;2023-08-17T03:20:34;93779.53;;;17.72;nan
20111;BME280;10216;42.658;23.248;2023-08-17T03:22:59;93775.38;;;17.71;nan
20111;BME280;10216;42.658;23.248;2023-08-17T03:25:24;93780.56;;;17.71;nan
20111;BME280;10216;42.658;23.248;2023-08-17T03:27:50;93781.97;;;17.67;nan
20111;BME280;10216;42.658;23.248;2023-08-17T03:30:15;93782.97;;;17.66;nan
20111;BME280;10216;42.658;23.248;2023-08-17T03:32:41;93781.59;;;17.64;nan
20111;BME280;10216;42.658;23.248;2023-08-17T03:35:07;93781.00;;;17.62;nan
20111;BME280;10216;42.658;23.248;2023-08-17T03:37:32;93784.59;;;17.47;nan
20111;BME280;10216;42.658;23.248;2023-08-17T03:39:57;93793.00;;;17.49;nan
20111;BME280;10216;42.658;23.248;2023-08-17T03:42:23;93794.16;;;17.53;nan
20111;BME280;10216;42.658;23.248;2023-08-17T03:44:48;93790.00;;;17.46;nan
20111;BME280;10216;42.658;23.248;2023-08-17T03:47:14;93791.00;;;17.45;nan
20111;BME280;10216;42.658;23.248;2023-08-17T03:49:39;93786.19;;;17.48;nan
20111;BME280;10216;42.658;23.248;2023-08-17T03:52:05;93786.19;;;17.48;nan
20111;BME280;10216;42.658;23.248;2023-08-17T03:54:31;93793.41;;;17.40;nan
20111;BME280;10216;42.658;23.248;2023-08-17T03:56:56;93805.56;;;17.39;nan
20111;BME280;10216;42.658;23.248;2023-08-17T03:59:21;93801.78;;;17.42;nan
20111;BME280;10216;42.658;23.248;2023-08-17T04:01:47;93802.59;;;17.42;nan
20111;BME280;10216;42.658;23.248;2023-08-17T04:04:12;93801.38;;;17.45;nan
20111;BME280;10216;42.658;23.248;2023-08-17T04:06:37;93803.94;;;17.51;nan
20111;BME280;10216;42.658;23.248;2023-08-17T04:09:04;93809.34;;;17.56;nan
20111;BME280;10216;42.658;23.248;2023-08-17T04:11:29;93807.56;;;17.64;nan
20111;BME280;10216;42.658;23.248;2023-08-17T04:13:55;93803.34;;;17.69;nan
20111;BME280;10216;42.658;23.248;2023-08-17T04:16:20;93806.75;;;17.70;nan
20111;BME280;10216;42.658;23.248;2023-08-17T04:18:46;93805.31;;;17.74;nan
20111;BME280;10216;42.658;23.248;2023-08-17T04:21:11;93806.09;;;17.81;nan
20111;BME280;10216;42.658;23.248;2023-08-17T04:23:36;93807.84;;;17.87;nan
20111;BME280;10216;42.658;23.248;2023-08-17T04:26:02;93800.25;;;17.92;nan
20111;BME280;10216;42.658;23.248;2023-08-17T04:28:27;93806.41;;;18.04;nan
20111;BME280;10216;42.658;23.248;2023-08-17T04:30:52;93809.13;;;18.16;nan
20111;BME280;10216;42.658;23.248;2023-08-17T04:33:18;93806.94;;;18.19;nan
20111;BME280;10216;42.658;23.248;2023-08-17T04:35:46;93805.13;;;18.20;nan
20111;BME280;10216;42.658;23.248;2023-08-17T04:38:13;93799.50;;;18.29;nan
20111;BME280;10216;42.658;23.248;2023-08-17T04:40:38;93808.25;;;18.35;nan
20111;BME280;10216;42.658;23.248;2023-08-17T04:43:03;93802.63;;;18.38;nan
20111;BME280;10216;42.658;23.248;2023-08-17T04:45:29;93806.38;;;18.49;nan
20111;BME280;10216;42.658;23.248;2023-08-17T04:47:54;93795.75;;;18.50;nan
20111;BME280;10216;42.658;23.248;2023-08-17T04:50:20;93807.66;;;18.71;nan
20111;BME280;10216;42.658;23.248;2023-08-17T04:52:45;93801.59;;;18.77;nan
20111;BME280;10216;42.658;23.248;2023-08-17T04:55:14;93806.56;;;18.85;nan
20111;BME280;10216;42.658;23.248;2023-08-17T04:57:39;93809.44;;;18.95;nan
20111;BME280;10216;42.658;23.248;2023-08-17T05:00:05;93808.63;;;19.01;nan
20111;BME280;10216;42.658;23.248;2023-08-17T05:02:34;93810.00;;;19.04;nan
20111;BME280;10216;42.658;23.248;2023-08-17T05:05:01;93809.53;;;19.14;nan
20111;BME280;10216;42.658;23.248;2023-08-17T05:07:27;93811.69;;;19.17;nan
20111;BME280;10216;42.658;23.248;2023-08-17T05:09:53;93810.41;;;19.26;nan
20111;BME280;10216;42.658;23.248;2023-08-17T05:12:19;93814.75;;;19.32;nan
20111;BME280;10216;42.658;23.248;2023-08-17T05:14:44;93812.03;;;19.45;nan
20111;BME280;10216;42.658;23.248;2023-08-17T05:17:09;93817.56;;;19.55;nan
20111;BME280;10216;42.658;23.248;2023-08-17T05:19:35;93814.09;;;19.61;nan
20111;BME280;10216;42.658;23.248;2023-08-17T05:22:00;93813.00;;;19.69;nan
20111;BME280;10216;42.658;23.248;2023-08-17T05:24:26;93808.19;;;19.72;nan
20111;BME280;10216;42.658;23.248;2023-08-17T05:26:51;93811.66;;;19.84;nan
20111;BME280;10216;42.658;23.248;2023-08-17T05:29:16;93817.78;;;19.90;nan
20111;BME280;10216;42.658;23.248;2023-08-17T05:31:42;93814.81;;;20.05;nan
20111;BME280;10216;42.658;23.248;2023-08-17T05:34:07;93819.06;;;20.17;nan
20111;BME280;10216;42.658;23.248;2023-08-17T05:36:32;93807.69;;;20.30;nan
20111;BME280;10216;42.658;23.248;2023-08-17T05:38:58;93813.28;;;20.34;nan
20111;BME280;10216;42.658;23.248;2023-08-17T05:41:23;93815.00;;;20.40;nan
20111;BME280;10216;42.658;23.248;2023-08-17T05:43:49;93816.38;;;20.42;nan
20111;BME280;10216;42.658;23.248;2023-08-17T05:46:14;93813.66;;;20.49;nan
20111;BME280;10216;42.658;23.248;2023-08-17T05:48:39;93813.69;;;20.60;nan
20111;BME280;10216;42.658;23.248;2023-08-17T05:51:06;93821.47;;;20.67;nan
20111;BME280;10216;42.658;23.248;2023-08-17T05:53:31;93824.63;;;20.69;nan
20111;BME280;10216;42.658;23.248;2023-08-17T05:55:57;93822.81;;;20.70;nan
20111;BME280;10216;42.658;23.248;2023-08-17T05:58:22;93828.53;;;20.90;nan
20111;BME280;10216;42.658;23.248;2023-08-17T06:00:47;93825.06;;;21.08;nan
20111;BME280;10216;42.658;23.248;2023-08-17T06:03:13;93827.69;;;21.19;nan
20111;BME280;10216;42.658;23.248;2023-08-17T06:05:39;93827.03;;;21.35;nan
20111;BME280;10216;42.658;23.248;2023-08-17T06:08:05;93830.69;;;21.46;nan
20111;BME280;10216;42.658;23.248;2023-08-17T06:10:30;93831.81;;;21.50;nan
20111;BME280;10216;42.658;23.248;2023-08-17T06:12:56;93834.19;;;21.63;nan
20111;BME280;10216;42.658;23.248;2023-08-17T06:15:22;93822.59;;;21.71;nan
20111;BME280;10216;42.658;23.248;2023-08-17T06:17:48;93831.91;;;21.55;nan
20111;BME280;10216;42.658;23.248;2023-08-17T06:20:17;93820.66;;;21.78;nan
20111;BME280;10216;42.658;23.248;2023-08-17T06:22:43;93827.22;;;21.92;nan
20111;BME280;10216;42.658;23.248;2023-08-17T06:25:08;93832.69;;;22.02;nan
20111;BME280;10216;42.658;23.248;2023-08-17T06:27:34;93828.56;;;22.18;nan
20111;BME280;10216;42.658;23.248;2023-08-17T06:30:00;93837.75;;;22.32;nan
20111;BME280;10216;42.658;23.248;2023-08-17T06:32:26;93828.31;;;22.48;nan
20111;BME280;10216;42.658;23.248;2023-08-17T06:34:51;93828.06;;;22.61;nan
20111;BME280;10216;42.658;23.248;2023-08-17T06:37:19;93829.13;;;22.77;nan
20111;BME280;10216;42.658;23.248;2023-08-17T06:39:44;93829.50;;;22.97;nan
20111;BME280;10216;42.658;23.248;2023-08-17T06:42:10;93831.09;;;23.15;nan
20111;BME280;10216;42.658;23.248;2023-08-17T06:44:35;93828.16;;;23.28;nan
20111;BME280;10216;42.658;23.248;2023-08-17T06:47:01;93835.56;;;23.48;nan
20111;BME280;10216;42.658;23.248;2023-08-17T06:49:26;93835.75;;;23.63;nan
20111;BME280;10216;42.658;23.248;2023-08-17T06:51:52;93836.47;;;23.75;nan
20111;BME280;10216;42.658;23.248;2023-08-17T06:54:18;93839.50;;;23.84;nan
20111;BME280;10216;42.658;23.248;2023-08-17T06:56:43;93830.72;;;23.95;nan
20111;BME280;10216;42.658;23.248;2023-08-17T06:59:09;93832.50;;;24.11;nan
20111;BME280;10216;42.658;23.248;2023-08-17T07:01:34;93832.00;;;24.36;nan
20111;BME280;10216;42.658;23.248;2023-08-17T07:03:59;93834.69;;;24.63;nan
20111;BME280;10216;42.658;23.248;2023-08-17T07:06:25;93832.25;;;24.83;nan
20111;BME280;10216;42.658;23.248;2023-08-17T07:08:50;93823.00;;;25.02;nan
20111;BME280;10216;42.658;23.248;2023-08-17T07:11:17;93825.06;;;25.27;nan
20111;BME280;10216;42.658;23.248;2023-08-17T07:13:43;93818.31;;;25.41;nan
20111;BME280;10216;42.658;23.248;2023-08-17T07:16:08;93822.25;;;25.44;nan
20111;BME280;10216;42.658;23.248;2023-08-17T07:18:33;93819.03;;;25.63;nan
20111;BME280;10216;42.658;23.248;2023-08-17T07:20:59;93813.00;;;25.68;nan
20111;BME280;10216;42.658;23.248;2023-08-17T07:23:24;93817.56;;;25.83;nan
20111;BME280;10216;42.658;23.248;2023-08-17T07:25:49;93813.41;;;25.97;nan
20111;BME280;10216;42.658;23.248;2023-08-17T07:28:15;93815.81;;;26.09;nan
20111;BME280;10216;42.658;23.248;2023-08-17T07:30:40;93810.63;;;26.24;nan
20111;BME280;10216;42.658;23.248;2023-08-17T07:33:06;93808.88;;;26.39;nan
20111;BME280;10216;42.658;23.248;2023-08-17T07:35:31;93812.59;;;26.49;nan
20111;BME280;10216;42.658;23.248;2023-08-17T07:37:57;93813.19;;;26.76;nan
20111;BME280;10216;42.658;23.248;2023-08-17T07:40:22;93813.47;;;26.79;nan
20111;BME280;10216;42.658;23.248;2023-08-17T07:42:48;93820.31;;;26.86;nan
20111;BME280;10216;42.658;23.248;2023-08-17T07:45:13;93814.03;;;26.97;nan
20111;BME280;10216;42.658;23.248;2023-08-17T07:47:38;93807.16;;;27.16;nan
20111;BME280;10216;42.658;23.248;2023-08-17T07:50:05;93810.88;;;27.35;nan
20111;BME280;10216;42.658;23.248;2023-08-17T07:52:30;93815.09;;;27.51;nan
20111;BME280;10216;42.658;23.248;2023-08-17T07:54:56;93815.38;;;27.65;nan
20111;BME280;10216;42.658;23.248;2023-08-17T07:57:21;93821.38;;;27.86;nan
20111;BME280;10216;42.658;23.248;2023-08-17T07:59:47;93810.03;;;27.85;nan
20111;BME280;10216;42.658;23.248;2023-08-17T08:02:12;93818.22;;;27.84;nan
20111;BME280;10216;42.658;23.248;2023-08-17T08:04:37;93811.56;;;27.96;nan
20111;BME280;10216;42.658;23.248;2023-08-17T08:07:03;93807.41;;;27.75;nan
20111;BME280;10216;42.658;23.248;2023-08-17T08:09:28;93803.16;;;27.94;nan
20111;BME280;10216;42.658;23.248;2023-08-17T08:11:54;93807.03;;;28.17;nan
20111;BME280;10216;42.658;23.248;2023-08-17T08:14:19;93808.53;;;28.39;nan
20111;BME280;10216;42.658;23.248;2023-08-17T08:16:44;93807.41;;;28.60;nan
20111;BME280;10216;42.658;23.248;2023-08-17T08:19:10;93801.50;;;28.78;nan
20111;BME280;10216;42.658;23.248;2023-08-17T08:21:35;93801.91;;;28.95;nan
20111;BME280;10216;42.658;23.248;2023-08-17T08:24:00;93806.97;;;29.26;nan
20111;BME280;10216;42.658;23.248;2023-08-17T08:26:26;93800.03;;;29.35;nan
20111;BME280;10216;42.658;23.248;2023-08-17T08:28:51;93803.44;;;29.69;nan
20111;BME280;10216;42.658;23.248;2023-08-17T08:31:16;93804.31;;;29.88;nan
20111;BME280;10216;42.658;23.248;2023-08-17T08:33:43;93809.78;;;30.21;nan
20111;BME280;10216;42.658;23.248;2023-08-17T08:36:08;93813.22;;;30.45;nan
20111;BME280;10216;42.658;23.248;2023-08-17T08:38:33;93805.09;;;30.79;nan
20111;BME280;10216;42.658;23.248;2023-08-17T08:40:59;93797.69;;;30.76;nan
20111;BME280;10216;42.658;23.248;2023-08-17T08:43:25;93799.56;;;31.13;nan
20111;BME280;10216;42.658;23.248;2023-08-17T08:45:51;93795.09;;;31.46;nan
20111;BME280;10216;42.658;23.248;2023-08-17T08:48:18;93801.66;;;31.81;nan
20111;BME280;10216;42.658;23.248;2023-08-17T08:50:45;93805.75;;;32.20;nan
20111;BME280;10216;42.658;23.248;2023-08-17T08:53:14;93808.06;;;32.07;nan
20111;BME280;10216;42.658;23.248;2023-08-17T08:55:54;93799.91;;;32.45;nan
20111;BME280;10216;42.658;23.248;2023-08-17T08:58:21;93793.31;;;32.56;nan
20111;BME280;10216;42.658;23.248;2023-08-17T09:00:47;93793.34;;;32.92;nan
20111;BME280;10216;42.658;23.248;2023-08-17T09:03:14;93788.47;;;33.75;nan
20111;BME280;10216;42.658;23.248;2023-08-17T09:05:42;93775.63;;;33.77;nan
20111;BME280;10216;42.658;23.248;2023-08-17T09:08:10;93786.50;;;33.66;nan
20111;BME280;10216;42.658;23.248;2023-08-17T09:10:37;93780.06;;;34.29;nan
20111;BME280;10216;42.658;23.248;2023-08-17T09:13:03;93784.59;;;34.77;nan
20111;BME280;10216;42.658;23.248;2023-08-17T09:15:28;93777.81;;;34.71;nan
20111;BME280;10216;42.658;23.248;2023-08-17T09:17:54;93788.66;;;35.09;nan
20111;BME280;10216;42.658;23.248;2023-08-17T09:20:42;93783.25;;;35.86;nan
20111;BME280;10216;42.658;23.248;2023-08-17T09:23:18;93783.88;;;36.30;nan
20111;BME280;10216;42.658;23.248;2023-08-17T09:25:45;93784.03;;;36.84;nan
20111;BME280;10216;42.658;23.248;2023-08-17T09:28:13;93780.19;;;36.72;nan
20111;BME280;10216;42.658;23.248;2023-08-17T09:33:29;93771.72;;;37.66;nan
20111;BME280;10216;42.658;23.248;2023-08-17T09:35:55;93770.84;;;37.74;nan
20111;BME280;10216;42.658;23.248;2023-08-17T09:38:21;93770.66;;;38.03;nan
20111;BME280;10216;42.658;23.248;2023-08-17T09:40:48;93763.66;;;37.66;nan
20111;BME280;10216;42.658;23.248;2023-08-17T09:43:14;93761.53;;;38.53;nan
20111;BME280;10216;42.658;23.248;2023-08-17T09:45:40;93765.69;;;39.02;nan
20111;BME280;10216;42.658;23.248;2023-08-17T09:48:09;93757.56;;;38.62;nan
20111;BME280;10216;42.658;23.248;2023-08-17T09:50:35;93758.31;;;39.39;nan
20111;BME280;10216;42.658;23.248;2023-08-17T11:05:04;93414.72;;;43.79;nan
20111;BME280;10216;42.658;23.248;2023-08-17T11:07:43;93725.84;;;45.29;nan
20111;BME280;10216;42.658;23.248;2023-08-17T11:10:27;93725.19;;;46.74;nan
20111;BME280;10216;42.658;23.248;2023-08-17T11:12:54;93719.03;;;46.24;nan
20111;BME280;10216;42.658;23.248;2023-08-17T11:15:25;93725.47;;;45.41;nan
20111;BME280;10216;42.658;23.248;2023-08-17T11:17:51;93707.75;;;46.15;nan
20111;BME280;10216;42.658;23.248;2023-08-17T11:20:18;93710.44;;;46.18;nan
20111;BME280;10216;42.658;23.248;2023-08-17T11:22:43;93710.84;;;45.81;nan
20111;BME280;10216;42.658;23.248;2023-08-17T11:25:09;93709.47;;;45.11;nan
20111;BME280;10216;42.658;23.248;2023-08-17T11:27:34;93715.13;;;46.39;nan
20111;BME280;10216;42.658;23.248;2023-08-17T11:29:59;93716.47;;;47.32;nan
20111;BME280;10216;42.658;23.248;2023-08-17T11:32:25;93706.78;;;47.87;nan
20111;BME280;10216;42.658;23.248;2023-08-17T11:34:51;93704.22;;;46.71;nan
20111;BME280;10216;42.658;23.248;2023-08-17T11:37:17;93705.72;;;45.44;nan
20111;BME280;10216;42.658;23.248;2023-08-17T11:39:42;93697.22;;;45.57;nan
20111;BME280;10216;42.658;23.248;2023-08-17T11:42:08;93695.72;;;46.30;nan
20111;BME280;10216;42.658;23.248;2023-08-17T11:44:33;93695.59;;;46.83;nan
20111;BME280;10216;42.658;23.248;2023-08-17T11:46:59;93702.34;;;46.29;nan
20111;BME280;10216;42.658;23.248;2023-08-17T11:49:24;93701.72;;;47.12;nan
20111;BME280;10216;42.658;23.248;2023-08-17T11:51:53;93691.84;;;46.31;nan
20111;BME280;10216;42.658;23.248;2023-08-17T11:54:18;93692.84;;;45.20;nan
20111;BME280;10216;42.658;23.248;2023-08-17T11:56:44;93690.94;;;46.84;nan
20111;BME280;10216;42.658;23.248;2023-08-17T11:59:10;93696.94;;;48.03;nan
20111;BME280;10216;42.658;23.248;2023-08-17T12:01:39;93683.69;;;45.99;nan
20111;BME280;10216;42.658;23.248;2023-08-17T12:04:05;93685.25;;;46.11;nan
20111;BME280;10216;42.658;23.248;2023-08-17T12:06:31;93686.09;;;44.82;nan
20111;BME280;10216;42.658;23.248;2023-08-17T12:08:57;93683.56;;;45.25;nan
20111;BME280;10216;42.658;23.248;2023-08-17T12:11:25;93671.09;;;44.30;nan
20111;BME280;10216;42.658;23.248;2023-08-17T12:13:51;93665.19;;;43.73;nan
20111;BME280;10216;42.658;23.248;2023-08-17T12:16:18;93665.19;;;43.29;nan
20111;BME280;10216;42.658;23.248;2023-08-17T12:18:52;93665.59;;;42.38;nan
20111;BME280;10216;42.658;23.248;2023-08-17T12:21:21;93660.31;;;41.27;nan
20111;BME280;10216;42.658;23.248;2023-08-17T12:23:47;93663.44;;;41.10;nan
20111;BME280;10216;42.658;23.248;2023-08-17T12:26:19;93658.38;;;40.00;nan
20111;BME280;10216;42.658;23.248;2023-08-17T12:28:45;93649.63;;;39.72;nan
20111;BME280;10216;42.658;23.248;2023-08-17T12:31:11;93644.38;;;38.88;nan
20111;BME280;10216;42.658;23.248;2023-08-17T12:33:36;93640.22;;;39.19;nan
20111;BME280;10216;42.658;23.248;2023-08-17T12:36:01;93640.28;;;39.07;nan
20111;BME280;10216;42.658;23.248;2023-08-17T12:38:27;93637.59;;;38.79;nan
20111;BME280;10216;42.658;23.248;2023-08-17T12:40:52;93640.81;;;38.56;nan
20111;BME280;10216;42.658;23.248;2023-08-17T12:43:18;93643.75;;;38.27;nan
20111;BME280;10216;42.658;23.248;2023-08-17T12:45:43;93649.75;;;38.08;nan
20111;BME280;10216;42.658;23.248;2023-08-17T12:48:08;93642.91;;;38.23;nan
20111;BME280;10216;42.658;23.248;2023-08-17T12:50:34;93638.13;;;37.68;nan
20111;BME280;10216;42.658;23.248;2023-08-17T12:52:59;93633.94;;;38.19;nan
20111;BME280;10216;42.658;23.248;2023-08-17T12:55:24;93645.19;;;38.49;nan
20111;BME280;10216;42.658;23.248;2023-08-17T12:57:50;93643.34;;;38.65;nan
20111;BME280;10216;42.658;23.248;2023-08-17T13:00:16;93650.53;;;39.17;nan
20111;BME280;10216;42.658;23.248;2023-08-17T13:02:41;93656.50;;;39.54;nan
20111;BME280;10216;42.658;23.248;2023-08-17T13:05:07;93656.66;;;40.43;nan
20111;BME280;10216;42.658;23.248;2023-08-17T13:07:32;93654.34;;;40.61;nan
20111;BME280;10216;42.658;23.248;2023-08-17T13:09:57;93657.91;;;41.03;nan
20111;BME280;10216;42.658;23.248;2023-08-17T13:12:23;93653.63;;;40.44;nan
20111;BME280;10216;42.658;23.248;2023-08-17T13:14:48;93648.88;;;39.87;nan
20111;BME280;10216;42.658;23.248;2023-08-17T13:17:13;93659.78;;;39.47;nan
20111;BME280;10216;42.658;23.248;2023-08-17T13:19:41;93660.25;;;39.80;nan
20111;BME280;10216;42.658;23.248;2023-08-17T13:22:07;93659.72;;;39.91;nan
20111;BME280;10216;42.658;23.248;2023-08-17T13:24:32;93656.91;;;39.71;nan
20111;BME280;10216;42.658;23.248;2023-08-17T13:26:57;93658.25;;;39.34;nan
20111;BME280;10216;42.658;23.248;2023-08-17T13:29:23;93651.28;;;38.74;nan
20111;BME280;10216;42.658;23.248;2023-08-17T13:31:48;93653.88;;;37.81;nan
20111;BME280;10216;42.658;23.248;2023-08-17T13:34:14;93643.81;;;37.78;nan
20111;BME280;10216;42.658;23.248;2023-08-17T13:36:39;93641.53;;;37.32;nan
20111;BME280;10216;42.658;23.248;2023-08-17T13:39:06;93646.88;;;37.32;nan
20111;BME280;10216;42.658;23.248;2023-08-17T13:41:31;93643.72;;;36.85;nan
20111;BME280;10216;42.658;23.248;2023-08-17T13:43:57;93647.22;;;36.14;nan
20111;BME280;10216;42.658;23.248;2023-08-17T13:46:23;93657.06;;;35.72;nan
20111;BME280;10216;42.658;23.248;2023-08-17T13:48:48;93654.53;;;35.29;nan
20111;BME280;10216;42.658;23.248;2023-08-17T13:51:14;93644.63;;;35.30;nan
20111;BME280;10216;42.658;23.248;2023-08-17T13:53:40;93652.66;;;35.30;nan
20111;BME280;10216;42.658;23.248;2023-08-17T13:56:05;93647.19;;;35.55;nan
20111;BME280;10216;42.658;23.248;2023-08-17T13:58:31;93641.50;;;35.66;nan
20111;BME280;10216;42.658;23.248;2023-08-17T14:00:56;93641.50;;;35.19;nan
20111;BME280;10216;42.658;23.248;2023-08-17T14:03:22;93644.97;;;35.11;nan
20111;BME280;10216;42.658;23.248;2023-08-17T14:05:47;93647.53;;;34.90;nan
20111;BME280;10216;42.658;23.248;2023-08-17T14:08:13;93639.06;;;34.45;nan
20111;BME280;10216;42.658;23.248;2023-08-17T14:10:38;93636.41;;;34.28;nan
20111;BME280;10216;42.658;23.248;2023-08-17T14:13:03;93630.28;;;34.27;nan
20111;BME280;10216;42.658;23.248;2023-08-17T14:15:29;93642.81;;;34.53;nan
20111;BME280;10216;42.658;23.248;2023-08-17T14:17:55;93635.91;;;34.52;nan
20111;BME280;10216;42.658;23.248;2023-08-17T14:20:20;93640.78;;;34.24;nan
20111;BME280;10216;42.658;23.248;2023-08-17T14:22:46;93644.25;;;34.33;nan
20111;BME280;10216;42.658;23.248;2023-08-17T14:25:12;93641.28;;;34.34;nan